sensor_id;sensor_type;location;lat;lon;timestamp;P1;durP1;ratioP1;P2;durP2;ratioP2
16015;SDS011;8112;53.592;10.184;2024-02-26T00:01:34;7.07;;;6.37;;
16015;SDS011;8112;53.592;10.184;2024-02-26T00:06:38;7.00;;;6.30;;
16015;SDS011;8112;53.592;10.184;2024-02-26T00:11:41;6.70;;;6.00;;
16015;SDS011;8112;53.592;10.184;2024-02-26T00:16:43;6.97;;;6.30;;
16015;SDS011;8112;53.592;10.184;2024-02-26T00:21:47;7.67;;;6.70;;
16015;SDS011;8112;53.592;10.184;2024-02-26T00:26:49;8.40;;;6.87;;
16015;SDS011;8112;53.592;10.184;2024-02-26T00:31:54;7.30;;;6.60;;
16015;SDS011;8112;53.592;10.184;2024-02-26T00:36:58;7.47;;;6.67;;
16015;SDS011;8112;53.592;10.184;2024-02-26T00:42:00;7.40;;;6.50;;
16015;SDS011;8112;53.592;10.184;2024-02-26T00:47:02;8.63;;;6.20;;
16015;SDS011;8112;53.592;10.184;2024-02-26T00:52:06;9.07;;;7.13;;
16015;SDS011;8112;53.592;10.184;2024-02-26T00:57:07;7.43;;;6.37;;
16015;SDS011;8112;53.592;10.184;2024-02-26T01:02:11;6.53;;;5.60;;
16015;SDS011;8112;53.592;10.184;2024-02-26T01:07:15;7.70;;;5.80;;
16015;SDS011;8112;53.592;10.184;2024-02-26T01:12:16;7.37;;;6.10;;
16015;SDS011;8112;53.592;10.184;2024-02-26T01:17:19;6.97;;;5.60;;
16015;SDS011;8112;53.592;10.184;2024-02-26T01:22:22;4.50;;;4.07;;
16015;SDS011;8112;53.592;10.184;2024-02-26T01:27:24;5.33;;;4.83;;
16015;SDS011;8112;53.592;10.184;2024-02-26T01:32:27;6.07;;;5.47;;
16015;SDS011;8112;53.592;10.184;2024-02-26T01:37:31;7.30;;;5.73;;
16015;SDS011;8112;53.592;10.184;2024-02-26T01:42:32;6.53;;;5.30;;
16015;SDS011;8112;53.592;10.184;2024-02-26T01:47:34;6.70;;;6.00;;
16015;SDS011;8112;53.592;10.184;2024-02-26T01:52:40;6.70;;;5.93;;
16015;SDS011;8112;53.592;10.184;2024-02-26T01:57:42;6.47;;;5.33;;
16015;SDS011;8112;53.592;10.184;2024-02-26T02:02:45;6.00;;;5.17;;
16015;SDS011;8112;53.592;10.184;2024-02-26T02:07:50;6.20;;;5.60;;
16015;SDS011;8112;53.592;10.184;2024-02-26T02:12:53;6.00;;;5.30;;
16015;SDS011;8112;53.592;10.184;2024-02-26T02:17:55;6.17;;;5.00;;
16015;SDS011;8112;53.592;10.184;2024-02-26T02:23:00;6.47;;;5.33;;
16015;SDS011;8112;53.592;10.184;2024-02-26T02:28:02;5.70;;;5.10;;
16015;SDS011;8112;53.592;10.184;2024-02-26T02:33:04;6.13;;;5.30;;
16015;SDS011;8112;53.592;10.184;2024-02-26T02:38:09;6.73;;;5.73;;
16015;SDS011;8112;53.592;10.184;2024-02-26T02:43:11;7.33;;;6.13;;
16015;SDS011;8112;53.592;10.184;2024-02-26T02:48:13;6.63;;;5.93;;
16015;SDS011;8112;53.592;10.184;2024-02-26T02:53:17;7.53;;;6.33;;
16015;SDS011;8112;53.592;10.184;2024-02-26T02:58:19;8.40;;;6.67;;
16015;SDS011;8112;53.592;10.184;2024-02-26T03:03:21;7.77;;;6.63;;
16015;SDS011;8112;53.592;10.184;2024-02-26T03:08:26;7.03;;;6.30;;
16015;SDS011;8112;53.592;10.184;2024-02-26T03:13:27;6.73;;;5.93;;
16015;SDS011;8112;53.592;10.184;2024-02-26T03:18:29;7.67;;;6.50;;
16015;SDS011;8112;53.592;10.184;2024-02-26T03:23:33;8.43;;;6.70;;
16015;SDS011;8112;53.592;10.184;2024-02-26T03:28:36;10.70;;;7.13;;
16015;SDS011;8112;53.592;10.184;2024-02-26T03:33:38;7.50;;;6.03;;
16015;SDS011;8112;53.592;10.184;2024-02-26T03:38:42;7.70;;;6.53;;
16015;SDS011;8112;53.592;10.184;2024-02-26T03:43:44;7.50;;;6.23;;
16015;SDS011;8112;53.592;10.184;2024-02-26T03:48:46;8.13;;;6.40;;
16015;SDS011;8112;53.592;10.184;2024-02-26T03:53:50;7.43;;;6.20;;
16015;SDS011;8112;53.592;10.184;2024-02-26T03:58:52;9.73;;;7.13;;
16015;SDS011;8112;53.592;10.184;2024-02-26T04:03:54;11.47;;;8.43;;
16015;SDS011;8112;53.592;10.184;2024-02-26T04:08:57;14.83;;;9.77;;
16015;SDS011;8112;53.592;10.184;2024-02-26T04:14:02;9.10;;;7.13;;
16015;SDS011;8112;53.592;10.184;2024-02-26T04:19:06;10.10;;;8.67;;
16015;SDS011;8112;53.592;10.184;2024-02-26T04:24:09;9.30;;;7.23;;
16015;SDS011;8112;53.592;10.184;2024-02-26T04:29:12;10.13;;;7.47;;
16015;SDS011;8112;53.592;10.184;2024-02-26T04:34:14;7.60;;;6.70;;
16015;SDS011;8112;53.592;10.184;2024-02-26T04:39:17;9.13;;;7.40;;
16015;SDS011;8112;53.592;10.184;2024-02-26T04:44:19;30.67;;;15.97;;
16015;SDS011;8112;53.592;10.184;2024-02-26T04:49:21;33.27;;;18.07;;
16015;SDS011;8112;53.592;10.184;2024-02-26T04:54:25;26.83;;;15.43;;
16015;SDS011;8112;53.592;10.184;2024-02-26T04:59:26;20.73;;;12.47;;
16015;SDS011;8112;53.592;10.184;2024-02-26T05:04:28;17.83;;;11.07;;
16015;SDS011;8112;53.592;10.184;2024-02-26T05:09:32;20.43;;;10.90;;
16015;SDS011;8112;53.592;10.184;2024-02-26T05:14:34;12.33;;;8.87;;
16015;SDS011;8112;53.592;10.184;2024-02-26T05:19:36;9.87;;;7.13;;
16015;SDS011;8112;53.592;10.184;2024-02-26T05:24:39;9.80;;;7.13;;
16015;SDS011;8112;53.592;10.184;2024-02-26T05:29:41;10.57;;;7.20;;
16015;SDS011;8112;53.592;10.184;2024-02-26T05:34:43;8.97;;;6.70;;
16015;SDS011;8112;53.592;10.184;2024-02-26T05:39:46;8.97;;;7.37;;
16015;SDS011;8112;53.592;10.184;2024-02-26T05:44:48;9.10;;;7.23;;
16015;SDS011;8112;53.592;10.184;2024-02-26T05:49:50;7.03;;;6.33;;
16015;SDS011;8112;53.592;10.184;2024-02-26T05:54:54;7.50;;;6.53;;
16015;SDS011;8112;53.592;10.184;2024-02-26T05:59:56;8.30;;;6.67;;
16015;SDS011;8112;53.592;10.184;2024-02-26T06:05:00;7.40;;;6.43;;
16015;SDS011;8112;53.592;10.184;2024-02-26T06:10:08;7.73;;;6.60;;
16015;SDS011;8112;53.592;10.184;2024-02-26T06:15:14;8.20;;;6.70;;
16015;SDS011;8112;53.592;10.184;2024-02-26T06:20:16;8.87;;;7.40;;
16015;SDS011;8112;53.592;10.184;2024-02-26T06:25:19;9.23;;;7.30;;
16015;SDS011;8112;53.592;10.184;2024-02-26T06:30:21;7.90;;;6.80;;
16015;SDS011;8112;53.592;10.184;2024-02-26T06:35:23;8.00;;;7.20;;
16015;SDS011;8112;53.592;10.184;2024-02-26T06:40:26;8.33;;;6.93;;
16015;SDS011;8112;53.592;10.184;2024-02-26T06:45:29;9.23;;;7.40;;
16015;SDS011;8112;53.592;10.184;2024-02-26T06:50:30;8.90;;;7.43;;
16015;SDS011;8112;53.592;10.184;2024-02-26T06:55:35;9.80;;;7.67;;
16015;SDS011;8112;53.592;10.184;2024-02-26T07:00:37;11.00;;;9.07;;
16015;SDS011;8112;53.592;10.184;2024-02-26T07:05:40;11.70;;;8.97;;
16015;SDS011;8112;53.592;10.184;2024-02-26T07:10:46;10.87;;;8.73;;
16015;SDS011;8112;53.592;10.184;2024-02-26T07:15:48;9.83;;;8.43;;
16015;SDS011;8112;53.592;10.184;2024-02-26T07:20:50;11.60;;;9.60;;
16015;SDS011;8112;53.592;10.184;2024-02-26T07:25:53;11.13;;;9.80;;
16015;SDS011;8112;53.592;10.184;2024-02-26T07:30:55;12.83;;;9.17;;
16015;SDS011;8112;53.592;10.184;2024-02-26T07:35:57;11.73;;;9.60;;
16015;SDS011;8112;53.592;10.184;2024-02-26T07:41:01;11.13;;;9.23;;
16015;SDS011;8112;53.592;10.184;2024-02-26T07:46:03;12.17;;;9.97;;
16015;SDS011;8112;53.592;10.184;2024-02-26T07:51:05;13.40;;;9.97;;
16015;SDS011;8112;53.592;10.184;2024-02-26T07:56:11;13.33;;;10.23;;
16015;SDS011;8112;53.592;10.184;2024-02-26T08:01:13;11.37;;;9.37;;
16015;SDS011;8112;53.592;10.184;2024-02-26T08:06:16;14.07;;;10.93;;
16015;SDS011;8112;53.592;10.184;2024-02-26T08:11:20;12.53;;;10.57;;
16015;SDS011;8112;53.592;10.184;2024-02-26T08:16:22;13.47;;;10.97;;
16015;SDS011;8112;53.592;10.184;2024-02-26T08:21:24;15.17;;;11.77;;
16015;SDS011;8112;53.592;10.184;2024-02-26T08:26:27;13.60;;;11.27;;
16015;SDS011;8112;53.592;10.184;2024-02-26T08:31:29;12.93;;;10.50;;
16015;SDS011;8112;53.592;10.184;2024-02-26T08:36:32;12.17;;;10.73;;
16015;SDS011;8112;53.592;10.184;2024-02-26T08:41:37;13.57;;;10.37;;
16015;SDS011;8112;53.592;10.184;2024-02-26T08:46:39;13.53;;;11.37;;
16015;SDS011;8112;53.592;10.184;2024-02-26T08:51:41;12.47;;;10.47;;
16015;SDS011;8112;53.592;10.184;2024-02-26T08:56:46;13.03;;;10.33;;
16015;SDS011;8112;53.592;10.184;2024-02-26T09:01:47;12.63;;;10.43;;
16015;SDS011;8112;53.592;10.184;2024-02-26T09:06:49;13.57;;;9.67;;
16015;SDS011;8112;53.592;10.184;2024-02-26T09:11:52;11.97;;;9.93;;
16015;SDS011;8112;53.592;10.184;2024-02-26T09:16:55;12.20;;;9.37;;
16015;SDS011;8112;53.592;10.184;2024-02-26T09:21:59;11.60;;;9.77;;
16015;SDS011;8112;53.592;10.184;2024-02-26T09:27:03;12.27;;;9.67;;
16015;SDS011;8112;53.592;10.184;2024-02-26T09:32:06;11.23;;;9.33;;
16015;SDS011;8112;53.592;10.184;2024-02-26T09:37:08;11.17;;;8.90;;
16015;SDS011;8112;53.592;10.184;2024-02-26T09:42:11;12.10;;;9.37;;
16015;SDS011;8112;53.592;10.184;2024-02-26T09:47:14;10.70;;;8.80;;
16015;SDS011;8112;53.592;10.184;2024-02-26T09:52:17;12.83;;;9.33;;
16015;SDS011;8112;53.592;10.184;2024-02-26T09:57:23;11.77;;;9.13;;
16015;SDS011;8112;53.592;10.184;2024-02-26T10:02:25;12.63;;;9.23;;
16015;SDS011;8112;53.592;10.184;2024-02-26T10:07:28;19.13;;;10.53;;
16015;SDS011;8112;53.592;10.184;2024-02-26T10:12:32;16.00;;;10.23;;
16015;SDS011;8112;53.592;10.184;2024-02-26T10:17:35;13.40;;;10.13;;
16015;SDS011;8112;53.592;10.184;2024-02-26T10:22:38;15.27;;;10.40;;
16015;SDS011;8112;53.592;10.184;2024-02-26T10:27:41;16.87;;;10.43;;
16015;SDS011;8112;53.592;10.184;2024-02-26T10:32:46;17.23;;;10.80;;
16015;SDS011;8112;53.592;10.184;2024-02-26T10:37:49;15.47;;;10.53;;
16015;SDS011;8112;53.592;10.184;2024-02-26T10:42:53;15.67;;;11.00;;
16015;SDS011;8112;53.592;10.184;2024-02-26T10:47:55;15.17;;;11.53;;
16015;SDS011;8112;53.592;10.184;2024-02-26T10:52:57;16.23;;;10.67;;
16015;SDS011;8112;53.592;10.184;2024-02-26T10:58:01;16.63;;;11.60;;
16015;SDS011;8112;53.592;10.184;2024-02-26T11:03:04;18.53;;;12.70;;
16015;SDS011;8112;53.592;10.184;2024-02-26T11:08:07;16.73;;;12.17;;
16015;SDS011;8112;53.592;10.184;2024-02-26T11:13:14;16.37;;;12.10;;
16015;SDS011;8112;53.592;10.184;2024-02-26T11:18:17;14.83;;;11.67;;
16015;SDS011;8112;53.592;10.184;2024-02-26T11:23:22;16.47;;;11.47;;
16015;SDS011;8112;53.592;10.184;2024-02-26T11:28:25;16.57;;;11.77;;
16015;SDS011;8112;53.592;10.184;2024-02-26T11:33:29;17.63;;;11.40;;
16015;SDS011;8112;53.592;10.184;2024-02-26T11:38:31;19.50;;;13.37;;
16015;SDS011;8112;53.592;10.184;2024-02-26T11:43:52;16.47;;;12.37;;
16015;SDS011;8112;53.592;10.184;2024-02-26T11:48:58;16.80;;;12.37;;
16015;SDS011;8112;53.592;10.184;2024-02-26T11:54:02;20.13;;;13.00;;
16015;SDS011;8112;53.592;10.184;2024-02-26T11:59:09;16.63;;;11.63;;
16015;SDS011;8112;53.592;10.184;2024-02-26T12:04:14;15.53;;;11.93;;
16015;SDS011;8112;53.592;10.184;2024-02-26T12:09:30;12.53;;;10.17;;
16015;SDS011;8112;53.592;10.184;2024-02-26T12:14:36;12.33;;;9.73;;
16015;SDS011;8112;53.592;10.184;2024-02-26T12:19:40;15.10;;;10.33;;
16015;SDS011;8112;53.592;10.184;2024-02-26T12:24:43;12.60;;;9.50;;
16015;SDS011;8112;53.592;10.184;2024-02-26T12:29:49;14.40;;;9.30;;
16015;SDS011;8112;53.592;10.184;2024-02-26T12:34:52;11.37;;;8.97;;
16015;SDS011;8112;53.592;10.184;2024-02-26T12:39:55;13.67;;;10.10;;
16015;SDS011;8112;53.592;10.184;2024-02-26T12:44:58;12.30;;;9.93;;
16015;SDS011;8112;53.592;10.184;2024-02-26T12:50:00;12.47;;;9.70;;
16015;SDS011;8112;53.592;10.184;2024-02-26T12:55:05;12.93;;;9.70;;
16015;SDS011;8112;53.592;10.184;2024-02-26T13:00:11;12.53;;;9.53;;
16015;SDS011;8112;53.592;10.184;2024-02-26T13:05:14;13.53;;;10.23;;
16015;SDS011;8112;53.592;10.184;2024-02-26T13:10:20;14.10;;;10.70;;
16015;SDS011;8112;53.592;10.184;2024-02-26T13:15:23;12.23;;;9.90;;
16015;SDS011;8112;53.592;10.184;2024-02-26T13:20:26;13.50;;;10.00;;
16015;SDS011;8112;53.592;10.184;2024-02-26T13:25:30;13.97;;;10.57;;
16015;SDS011;8112;53.592;10.184;2024-02-26T13:30:33;11.37;;;9.00;;
16015;SDS011;8112;53.592;10.184;2024-02-26T13:35:36;13.30;;;9.23;;
16015;SDS011;8112;53.592;10.184;2024-02-26T13:40:39;11.27;;;8.67;;
16015;SDS011;8112;53.592;10.184;2024-02-26T13:45:44;11.37;;;8.63;;
16015;SDS011;8112;53.592;10.184;2024-02-26T13:50:47;9.90;;;8.13;;
16015;SDS011;8112;53.592;10.184;2024-02-26T13:55:51;10.00;;;8.07;;
16015;SDS011;8112;53.592;10.184;2024-02-26T14:00:54;9.33;;;7.30;;
16015;SDS011;8112;53.592;10.184;2024-02-26T14:05:56;11.20;;;8.97;;
16015;SDS011;8112;53.592;10.184;2024-02-26T14:10:58;11.37;;;9.40;;
16015;SDS011;8112;53.592;10.184;2024-02-26T14:16:05;12.30;;;9.00;;
16015;SDS011;8112;53.592;10.184;2024-02-26T14:21:07;11.53;;;9.43;;
16015;SDS011;8112;53.592;10.184;2024-02-26T14:26:11;12.73;;;9.53;;
16015;SDS011;8112;53.592;10.184;2024-02-26T14:31:17;13.57;;;9.87;;
16015;SDS011;8112;53.592;10.184;2024-02-26T14:36:20;13.67;;;10.30;;
16015;SDS011;8112;53.592;10.184;2024-02-26T14:41:23;12.83;;;9.73;;
16015;SDS011;8112;53.592;10.184;2024-02-26T14:46:26;12.93;;;9.43;;
16015;SDS011;8112;53.592;10.184;2024-02-26T14:51:29;13.70;;;10.17;;
16015;SDS011;8112;53.592;10.184;2024-02-26T14:56:31;14.30;;;10.50;;
16015;SDS011;8112;53.592;10.184;2024-02-26T15:01:34;13.77;;;10.60;;
16015;SDS011;8112;53.592;10.184;2024-02-26T15:06:37;12.70;;;10.03;;
16015;SDS011;8112;53.592;10.184;2024-02-26T15:11:40;13.13;;;9.77;;
16015;SDS011;8112;53.592;10.184;2024-02-26T15:16:45;12.43;;;9.73;;
16015;SDS011;8112;53.592;10.184;2024-02-26T15:21:48;13.67;;;9.90;;
16015;SDS011;8112;53.592;10.184;2024-02-26T15:26:50;15.03;;;10.67;;
16015;SDS011;8112;53.592;10.184;2024-02-26T15:31:58;12.53;;;9.70;;
16015;SDS011;8112;53.592;10.184;2024-02-26T15:37:00;12.60;;;9.73;;
16015;SDS011;8112;53.592;10.184;2024-02-26T15:42:01;12.90;;;9.83;;
16015;SDS011;8112;53.592;10.184;2024-02-26T15:47:05;12.80;;;9.30;;
16015;SDS011;8112;53.592;10.184;2024-02-26T15:52:13;13.00;;;9.80;;
16015;SDS011;8112;53.592;10.184;2024-02-26T15:57:15;12.47;;;10.00;;
16015;SDS011;8112;53.592;10.184;2024-02-26T16:02:18;10.93;;;8.63;;
16015;SDS011;8112;53.592;10.184;2024-02-26T16:07:22;12.23;;;9.20;;
16015;SDS011;8112;53.592;10.184;2024-02-26T16:12:30;11.47;;;9.37;;
16015;SDS011;8112;53.592;10.184;2024-02-26T16:17:40;11.43;;;8.93;;
16015;SDS011;8112;53.592;10.184;2024-02-26T16:22:47;13.00;;;10.00;;
16015;SDS011;8112;53.592;10.184;2024-02-26T16:27:50;11.67;;;9.23;;
16015;SDS011;8112;53.592;10.184;2024-02-26T16:32:54;10.30;;;8.13;;
16015;SDS011;8112;53.592;10.184;2024-02-26T16:37:56;11.00;;;8.20;;
16015;SDS011;8112;53.592;10.184;2024-02-26T16:42:59;11.27;;;8.37;;
16015;SDS011;8112;53.592;10.184;2024-02-26T16:48:03;10.97;;;8.67;;
16015;SDS011;8112;53.592;10.184;2024-02-26T16:53:05;11.10;;;8.37;;
16015;SDS011;8112;53.592;10.184;2024-02-26T16:58:08;13.10;;;9.73;;
16015;SDS011;8112;53.592;10.184;2024-02-26T17:03:11;15.13;;;10.23;;
16015;SDS011;8112;53.592;10.184;2024-02-26T17:08:15;12.20;;;9.20;;
16015;SDS011;8112;53.592;10.184;2024-02-26T17:13:17;12.77;;;9.73;;
16015;SDS011;8112;53.592;10.184;2024-02-26T17:18:21;15.47;;;10.17;;
16015;SDS011;8112;53.592;10.184;2024-02-26T17:23:23;13.23;;;10.10;;
16015;SDS011;8112;53.592;10.184;2024-02-26T17:28:27;13.93;;;9.70;;
16015;SDS011;8112;53.592;10.184;2024-02-26T17:33:31;14.20;;;9.67;;
16015;SDS011;8112;53.592;10.184;2024-02-26T17:38:33;13.77;;;10.17;;
16015;SDS011;8112;53.592;10.184;2024-02-26T17:43:35;12.70;;;9.47;;
16015;SDS011;8112;53.592;10.184;2024-02-26T17:48:38;13.30;;;10.00;;
16015;SDS011;8112;53.592;10.184;2024-02-26T17:53:42;11.87;;;8.63;;
16015;SDS011;8112;53.592;10.184;2024-02-26T17:58:44;13.87;;;10.27;;
16015;SDS011;8112;53.592;10.184;2024-02-26T18:03:48;13.17;;;9.70;;
16015;SDS011;8112;53.592;10.184;2024-02-26T18:08:51;12.87;;;9.77;;
16015;SDS011;8112;53.592;10.184;2024-02-26T18:13:53;14.10;;;11.00;;
16015;SDS011;8112;53.592;10.184;2024-02-26T18:18:58;14.80;;;10.10;;
16015;SDS011;8112;53.592;10.184;2024-02-26T18:23:59;13.90;;;9.87;;
16015;SDS011;8112;53.592;10.184;2024-02-26T18:29:01;13.00;;;10.00;;
16015;SDS011;8112;53.592;10.184;2024-02-26T18:34:06;12.17;;;9.37;;
16015;SDS011;8112;53.592;10.184;2024-02-26T18:39:08;21.07;;;14.83;;
16015;SDS011;8112;53.592;10.184;2024-02-26T18:44:10;14.03;;;9.73;;
16015;SDS011;8112;53.592;10.184;2024-02-26T18:49:16;14.53;;;10.10;;
16015;SDS011;8112;53.592;10.184;2024-02-26T18:54:18;14.17;;;9.10;;
16015;SDS011;8112;53.592;10.184;2024-02-26T18:59:23;12.60;;;9.57;;
16015;SDS011;8112;53.592;10.184;2024-02-26T19:04:26;15.13;;;9.80;;
16015;SDS011;8112;53.592;10.184;2024-02-26T19:09:30;12.17;;;8.57;;
16015;SDS011;8112;53.592;10.184;2024-02-26T19:14:32;11.07;;;8.73;;
16015;SDS011;8112;53.592;10.184;2024-02-26T19:19:35;17.53;;;11.40;;
16015;SDS011;8112;53.592;10.184;2024-02-26T19:24:39;16.73;;;11.90;;
16015;SDS011;8112;53.592;10.184;2024-02-26T19:29:41;19.47;;;12.93;;
16015;SDS011;8112;53.592;10.184;2024-02-26T19:34:44;15.63;;;10.90;;
16015;SDS011;8112;53.592;10.184;2024-02-26T19:39:46;17.37;;;10.93;;
16015;SDS011;8112;53.592;10.184;2024-02-26T19:44:48;12.97;;;9.73;;
16015;SDS011;8112;53.592;10.184;2024-02-26T19:49:51;12.17;;;9.13;;
16015;SDS011;8112;53.592;10.184;2024-02-26T19:54:53;12.67;;;9.03;;
16015;SDS011;8112;53.592;10.184;2024-02-26T19:59:55;13.60;;;9.77;;
16015;SDS011;8112;53.592;10.184;2024-02-26T20:05:01;14.20;;;10.07;;
16015;SDS011;8112;53.592;10.184;2024-02-26T20:10:06;13.97;;;9.77;;
16015;SDS011;8112;53.592;10.184;2024-02-26T20:15:09;13.53;;;9.70;;
16015;SDS011;8112;53.592;10.184;2024-02-26T20:20:13;12.93;;;9.23;;
16015;SDS011;8112;53.592;10.184;2024-02-26T20:25:16;14.13;;;10.10;;
16015;SDS011;8112;53.592;10.184;2024-02-26T20:30:21;16.37;;;11.13;;
16015;SDS011;8112;53.592;10.184;2024-02-26T20:35:27;15.17;;;10.53;;
16015;SDS011;8112;53.592;10.184;2024-02-26T20:40:29;15.47;;;10.33;;
16015;SDS011;8112;53.592;10.184;2024-02-26T20:45:32;18.20;;;11.50;;
16015;SDS011;8112;53.592;10.184;2024-02-26T20:50:36;19.80;;;12.07;;
16015;SDS011;8112;53.592;10.184;2024-02-26T20:55:38;21.87;;;13.53;;
16015;SDS011;8112;53.592;10.184;2024-02-26T21:00:40;20.63;;;12.63;;
16015;SDS011;8112;53.592;10.184;2024-02-26T21:05:45;23.10;;;13.87;;
16015;SDS011;8112;53.592;10.184;2024-02-26T21:10:48;19.37;;;13.20;;
16015;SDS011;8112;53.592;10.184;2024-02-26T21:15:51;19.33;;;12.77;;
16015;SDS011;8112;53.592;10.184;2024-02-26T21:20:54;20.50;;;13.67;;
16015;SDS011;8112;53.592;10.184;2024-02-26T21:25:57;22.50;;;13.67;;
16015;SDS011;8112;53.592;10.184;2024-02-26T21:30:59;22.90;;;12.93;;
16015;SDS011;8112;53.592;10.184;2024-02-26T21:36:04;24.50;;;13.30;;
16015;SDS011;8112;53.592;10.184;2024-02-26T21:41:07;22.37;;;14.03;;
16015;SDS011;8112;53.592;10.184;2024-02-26T21:46:10;25.60;;;12.63;;
16015;SDS011;8112;53.592;10.184;2024-02-26T21:51:13;24.07;;;14.37;;
16015;SDS011;8112;53.592;10.184;2024-02-26T21:56:16;24.20;;;13.60;;
16015;SDS011;8112;53.592;10.184;2024-02-26T22:01:18;31.57;;;13.77;;
16015;SDS011;8112;53.592;10.184;2024-02-26T22:06:21;22.47;;;12.77;;
16015;SDS011;8112;53.592;10.184;2024-02-26T22:11:23;29.37;;;14.37;;
16015;SDS011;8112;53.592;10.184;2024-02-26T22:16:25;27.40;;;13.30;;
16015;SDS011;8112;53.592;10.184;2024-02-26T22:21:30;23.77;;;13.70;;
16015;SDS011;8112;53.592;10.184;2024-02-26T22:26:33;25.60;;;14.07;;
16015;SDS011;8112;53.592;10.184;2024-02-26T22:31:35;28.10;;;15.33;;
16015;SDS011;8112;53.592;10.184;2024-02-26T22:36:40;26.00;;;14.20;;
16015;SDS011;8112;53.592;10.184;2024-02-26T22:41:43;26.20;;;13.97;;
16015;SDS011;8112;53.592;10.184;2024-02-26T22:46:45;26.40;;;14.23;;
16015;SDS011;8112;53.592;10.184;2024-02-26T22:51:49;30.47;;;15.03;;
16015;SDS011;8112;53.592;10.184;2024-02-26T22:56:51;25.93;;;13.77;;
16015;SDS011;8112;53.592;10.184;2024-02-26T23:01:53;27.00;;;15.07;;
16015;SDS011;8112;53.592;10.184;2024-02-26T23:06:58;27.30;;;14.77;;
16015;SDS011;8112;53.592;10.184;2024-02-26T23:12:00;25.40;;;13.67;;
16015;SDS011;8112;53.592;10.184;2024-02-26T23:17:03;27.83;;;15.00;;
16015;SDS011;8112;53.592;10.184;2024-02-26T23:22:06;23.77;;;14.00;;
16015;SDS011;8112;53.592;10.184;2024-02-26T23:27:08;27.37;;;15.30;;
16015;SDS011;8112;53.592;10.184;2024-02-26T23:32:10;23.00;;;13.97;;
16015;SDS011;8112;53.592;10.184;2024-02-26T23:37:16;27.93;;;15.53;;
16015;SDS011;8112;53.592;10.184;2024-02-26T23:42:18;28.13;;;14.53;;
16015;SDS011;8112;53.592;10.184;2024-02-26T23:47:20;28.20;;;15.47;;
16015;SDS011;8112;53.592;10.184;2024-02-26T23:52:27;26.37;;;15.07;;
16015;SDS011;8112;53.592;10.184;2024-02-26T23:57:29;27.37;;;14.23;;
